• Join FlightAware (Why Join?)
  • Login
  • US Flag 
10:08PM EST


 

Airport Tracker/Info


-or-


 

Live Flight TrackerFlight Track Log ✈ FLG4262 ✈ 07-Apr-2014 ✈ KBGM - KDTW

Flight Track Log - Related Links

Times and Time Zones

All times are in EDT time to prevent confusion due to time zone crossing. See the FLG4262 flight status page for this flight to view local times or setup timezone preferences in your user account.

Time Position Orientation Groundspeed Altitude Reporting Facility
EDT Latitude Longitude Course Direction KTS MPH feet Rate Location/Type
05:36PM 42.2100 -76.1542 292° West 289 333 7,700  Level Cleveland Center
05:37PM 42.2383 -76.2506 292° West 284 327 10,500 2,040 Climbing Cleveland Center
05:38PM 42.2681 -76.3517 292° West 287 330 12,000 1,380 Climbing Cleveland Center
05:39PM 42.2994 -76.4544 292° West 309 356 13,400 1,680 Climbing Cleveland Center
05:40PM 42.3853 -76.6223 294° West  Level FlightAware Approximate
05:40PM 42.3408 -76.5936 292° West 331 381 15,500  Level Cleveland Center
05:41PM 42.3756 -76.7094 292° West 333 383 17,300 1,500 Climbing Cleveland Center
05:42PM 42.4097 -76.8281 291° West 334 384 18,600 1,200 Climbing Cleveland Center
05:43PM 42.4461 -76.9511 292° West 348 400 19,800 1,140 Climbing Cleveland Center
05:44PM 42.4833 -77.0772 292° West 355 409 21,000 1,020 Climbing Cleveland Center
05:45PM 42.5203 -77.2053 291° West 363 418 22,000 480 Climbing Cleveland Center
05:46PM 42.5678 -77.3675 292° West 383 441 22,000  Level Cleveland Center
05:47PM 42.6042 -77.4925 292° West 397 457 22,000  Level Cleveland Center
05:48PM 42.6539 -77.6642 292° West 404 465 22,000  Level Cleveland Center
05:50PM 42.7375 -77.9600 291° West 419 482 22,000  Level Cleveland Center
05:51PM 42.7556 -78.1094 279° West 410 472 22,000  Level Cleveland Center
05:52PM 42.7572 -78.2625 271° West 405 466 22,000  Level Cleveland Center
05:53PM 42.7569 -78.4100 270° West 391 450 22,000  Level Cleveland Center
05:54PM 42.7572 -78.5822 270° West 384 442 22,000  Level Cleveland Center
05:56PM 42.7564 -78.8692 270° West 381 438 22,000  Level Cleveland Center
05:57PM 42.7569 -79.0144 270° West 386 444 22,000  Level Cleveland Center
05:58PM 42.7556 -79.1564 269° West 379 436 22,000  Level Cleveland Center
05:59PM 42.7550 -79.2964 270° West 373 429 22,000  Level Cleveland Center
06:01PM 42.7531 -79.6103 269° West 378 435 22,000  Level Cleveland Center
06:03PM 42.7492 -79.8919 269° West 374 430 22,000  Level Cleveland Center
06:04PM 42.7431 -80.0328 267° West 375 432 22,000  Level Cleveland Center
06:06PM 42.7367 -80.1994 267° West 376 433 22,000  Level Cleveland Center
06:07PM 42.7306 -80.3431 267° West 376 433 22,000  Level Cleveland Center
06:08PM 42.7233 -80.4850 266° West 376 433 22,000  Level Cleveland Center
06:10PM 42.7119 -80.7778 267° West 385 443 22,000  Level Cleveland Center
06:11PM 42.7036 -80.9217 266° West 385 443 22,000  Level Cleveland Center
06:12PM 42.6833 -81.0856 260° West 378 435 22,000  Level Cleveland Center
06:13PM 42.6681 -81.2269 262° West 378 435 22,000  Level Cleveland Center
06:14PM 42.6503 -81.3708 261° West 380 437 22,000  Level Cleveland Center
06:15PM 42.6350 -81.5119 262° West 380 437 22,000  Level Cleveland Center
06:17PM 42.5989 -81.8133 261° West 381 438 22,000 -540 Level Cleveland Center
06:18PM 42.5808 -81.9569 260° West 383 441 20,500 -1,800 Descending Cleveland Center
06:19PM 42.5631 -82.1008 261° West 390 449 18,400 -2,100 Descending Cleveland Center
06:20PM 42.5458 -82.2339 260° West 364 419 16,200 -2,280 Descending Cleveland Center
06:20PM 42.5406 -82.2847 262° West 353 406 15,500 -2,040 Descending Cleveland Center
06:21PM 42.5264 -82.4017 261° West 336 387 13,900 -1,680 Descending Cleveland Center
06:22PM 42.5119 -82.5189 261° West 311 358 12,300 -1,020 Descending Cleveland Center
06:23PM 42.4878 -82.6042 249° West 290 334 12,000 -180 Descending Cleveland Center
06:24PM 42.4481 -82.7114 243° Southwest 279 321 12,000  Level Cleveland Center
06:25PM 42.4203 -82.7950 246° West 281 323 12,000  Level Cleveland Center
06:26PM 42.3844 -82.8922 244° Southwest 235 270 12,000  Level Cleveland Center
06:27PM 42.3608 -82.9578 244° Southwest 242 278 12,000  Level Cleveland Center
06:28PM 42.3361 -83.0597 252° West 241 277 12,000 -360 Level Cleveland Center
06:29PM 42.3178 -83.1475 254° West 241 277 11,300 -540 Descending Cleveland Center
06:30PM 42.2803 -83.2197 235° Southwest 217 250 11,000 -180 Descending Cleveland Center
06:31PM 42.2317 -83.2522 206° Southwest 198 228 11,000 -600 Level Cleveland Center
06:32PM 42.1789 -83.2844 204° Southwest 206 237 9,800 -1,080 Descending Cleveland Center
06:33PM 42.1203 -83.3128 200° South 206 237 8,900 -960 Descending Cleveland Center
06:36PM 42.0106 -83.3761 236° Southwest 214 246 6,900 -1,140 Descending Cleveland Center
06:36PM 41.9553 -83.4106 205° Southwest 215 247 5,600 -1,440 Descending Cleveland Center
06:37PM 41.9022 -83.4450 206° Southwest 197 227 4,200 -840 Descending Cleveland Center
06:38PM 41.8581 -83.4753 207° Southwest 197 227 4,000 -180 Descending Cleveland Center
06:39PM 41.8517 -83.4775 195° South 202 232 4,000  Level Cleveland Center
06:39PM 41.8133 -83.5108 213° Southwest 196 226 4,000  Level Cleveland Center
06:40PM 41.8128 -83.5189 265° West 198 228 4,000  Level Cleveland Center
06:40PM 41.8069 -83.5883 264° West 196 226 4,000  Level Cleveland Center
06:41PM 41.8075 -83.5947 277° West 205 236 4,000  Level Cleveland Center
06:42PM 41.8494 -83.6086 346° North 156 180 4,000  Level Cleveland Center
06:42PM 41.8561 -83.6044 25° Northeast 171 197 4,000  Level Cleveland Center
06:43PM 41.8875 -83.5803 30° Northeast 153 176 4,000  Level Cleveland Center
06:43PM 41.8917 -83.5750 43° Northeast 153 176 4,000  Level Cleveland Center
06:44PM 41.9256 -83.5494 29° Northeast 158 182 4,000  Level Cleveland Center
06:44PM 41.9283 -83.5458 44° Northeast 153 176 4,000  Level Cleveland Center
06:45PM 41.9631 -83.5239 25° Northeast 153 176 4,000  Level Cleveland Center
06:45PM 41.9675 -83.5203 31° Northeast 153 176 4,000  Level Cleveland Center
06:46PM 41.9989 -83.4953 31° Northeast 142 163 4,000  Level Cleveland Center
06:46PM 42.0022 -83.4936 20° North 152 175 4,000  Level Cleveland Center
06:47PM 42.0367 -83.4697 27° Northeast 152 175 4,000  Level Cleveland Center
06:47PM 42.0383 -83.4672 48° Northeast 150 173 4,000 -420 Level Cleveland Center
06:48PM 42.0700 -83.4436 29° Northeast 136 157 3,600 -600 Descending Cleveland Center
06:48PM 42.0783 -83.4369 31° Northeast 143 165 3,400 -840 Descending Cleveland Center
06:49PM 42.1058 -83.4178 27° Northeast 138 159 2,800 -720 Descending Cleveland Center
06:49PM 42.1122 -83.4125 32° Northeast 142 163 2,700 -780 Descending Cleveland Center
06:50PM 42.1347 -83.3964 28° Northeast 130 150 2,100 -840 Descending Cleveland Center
06:51PM 42.1703 -83.3706 28° Northeast 119 137 1,300 -660 Descending Cleveland Center
06:51PM 42.1736 -83.3675 34° Northeast 129 148 1,200 -420 Descending Cleveland Center
06:52PM 42.2072 -83.3428 29° Northeast 125 144 800 -420 Descending Cleveland Center